createdAt,value
2023-12-02T00:02:19.924Z,18.00
2023-12-02T00:04:47.255Z,23.80
2023-12-02T00:07:14.742Z,43.30
2023-12-02T00:09:42.010Z,24.90
2023-12-02T00:12:09.261Z,48.50
2023-12-02T00:14:36.488Z,42.40
2023-12-02T00:17:03.849Z,87.20
2023-12-02T00:19:31.103Z,60.50
2023-12-02T00:21:58.809Z,53.60
2023-12-02T00:24:26.055Z,94.00
2023-12-02T00:26:53.378Z,49.90
2023-12-02T00:29:20.644Z,70.90
2023-12-02T00:31:47.829Z,29.00
2023-12-02T00:34:15.101Z,28.00
2023-12-02T00:36:47.097Z,50.00
2023-12-02T00:39:14.413Z,27.20
2023-12-02T00:41:42.789Z,34.60
2023-12-02T00:44:10.753Z,25.60
2023-12-02T00:46:37.996Z,19.90
2023-12-02T00:49:05.327Z,42.30
2023-12-02T00:51:32.717Z,41.00
2023-12-02T00:54:00.032Z,24.40
2023-12-02T00:56:27.306Z,20.70
2023-12-02T00:58:54.807Z,18.80
2023-12-02T01:01:22.089Z,16.20
2023-12-02T01:03:49.268Z,19.80
2023-12-02T01:06:16.565Z,25.00
2023-12-02T01:08:43.851Z,26.00
2023-12-02T01:11:11.195Z,26.40
2023-12-02T01:13:38.536Z,21.70
2023-12-02T01:16:06.185Z,29.50
2023-12-02T01:18:33.447Z,37.20
2023-12-02T01:21:00.736Z,39.90
2023-12-02T01:23:27.970Z,37.20
2023-12-02T01:25:55.187Z,35.70
2023-12-02T01:28:22.835Z,34.00
2023-12-02T01:30:50.406Z,34.70
2023-12-02T01:33:17.666Z,34.20
2023-12-02T01:35:44.961Z,40.10
2023-12-02T01:38:12.356Z,36.40
2023-12-02T01:40:39.550Z,41.10
2023-12-02T01:43:06.844Z,39.70
2023-12-02T01:45:34.080Z,38.40
2023-12-02T01:48:01.583Z,44.80
2023-12-02T01:50:29.711Z,27.80
2023-12-02T01:52:57.348Z,75.40
2023-12-02T01:55:26.638Z,48.90
2023-12-02T01:57:53.997Z,39.20
2023-12-02T02:00:21.374Z,36.80
2023-12-02T02:02:48.655Z,38.00
2023-12-02T02:05:16.562Z,41.50
2023-12-02T02:07:44.014Z,71.50
2023-12-02T02:13:19.980Z,40.60
2023-12-02T02:15:47.265Z,26.50
2023-12-02T02:18:14.742Z,21.90
2023-12-02T02:20:42.437Z,24.90
2023-12-02T02:23:10.383Z,21.90
2023-12-02T02:25:37.843Z,19.30
2023-12-02T02:28:05.183Z,18.50
2023-12-02T02:30:32.589Z,21.60
2023-12-02T02:32:59.956Z,18.30
2023-12-02T02:35:27.354Z,21.40
2023-12-02T02:37:55.170Z,17.00
2023-12-02T02:40:22.679Z,20.40
2023-12-02T02:42:49.936Z,23.20
2023-12-02T02:45:17.748Z,28.30
2023-12-02T02:47:45.945Z,28.20
2023-12-02T02:50:13.325Z,34.50
2023-12-02T02:52:40.790Z,36.30
2023-12-02T02:55:08.406Z,25.60
2023-12-02T02:57:36.356Z,18.50
2023-12-02T03:00:06.927Z,22.20
2023-12-02T03:02:34.314Z,21.20
2023-12-02T03:05:01.713Z,30.70
2023-12-02T03:07:29.100Z,26.50
2023-12-02T03:09:58.273Z,30.60
2023-12-02T03:12:26.234Z,33.80
2023-12-02T03:14:55.465Z,22.50
2023-12-02T03:17:23.076Z,17.80
2023-12-02T03:19:50.700Z,17.10
2023-12-02T03:22:18.673Z,20.20
2023-12-02T03:24:46.718Z,25.40
2023-12-02T03:27:14.122Z,21.00
2023-12-02T03:29:41.484Z,28.80
2023-12-02T03:32:08.736Z,32.50
2023-12-02T03:34:36.215Z,32.60
2023-12-02T03:37:03.894Z,24.10
2023-12-02T03:39:31.242Z,29.60
2023-12-02T03:41:58.675Z,25.50
2023-12-02T03:44:26.038Z,21.80
2023-12-02T03:46:53.375Z,19.00
2023-12-02T03:49:20.955Z,18.70
2023-12-02T03:51:48.701Z,16.70
2023-12-02T03:54:16.197Z,18.50
2023-12-02T03:56:43.588Z,23.00
2023-12-02T03:59:10.953Z,22.60
2023-12-02T04:01:38.368Z,23.90
2023-12-02T04:04:06.712Z,18.30
2023-12-02T04:06:34.391Z,20.40
2023-12-02T04:09:01.811Z,19.40
2023-12-02T04:11:29.238Z,17.20
2023-12-02T04:13:56.629Z,19.50
2023-12-02T04:16:24.067Z,23.00
2023-12-02T04:18:51.569Z,24.80
2023-12-02T04:21:19.059Z,17.90
2023-12-02T04:23:46.536Z,22.20
2023-12-02T04:26:13.909Z,16.30
2023-12-02T04:28:41.333Z,18.40
2023-12-02T04:31:08.696Z,22.30
2023-12-02T04:33:36.164Z,28.50
2023-12-02T04:36:04.033Z,18.20
2023-12-02T04:38:31.479Z,16.90
2023-12-02T04:40:58.838Z,18.20
2023-12-02T04:43:26.241Z,16.80
2023-12-02T04:45:53.601Z,19.00
2023-12-02T04:48:21.205Z,21.70
2023-12-02T04:50:48.559Z,22.00
2023-12-02T04:53:15.829Z,23.80
2023-12-02T04:55:43.413Z,19.70
2023-12-02T04:58:10.999Z,18.60
2023-12-02T05:00:38.473Z,22.10
2023-12-02T05:03:07.315Z,20.80
2023-12-02T05:05:37.467Z,41.20
2023-12-02T05:08:05.373Z,63.70
2023-12-02T05:10:32.778Z,72.80
2023-12-02T05:13:00.085Z,29.70
2023-12-02T05:15:27.506Z,23.00
2023-12-02T05:17:54.894Z,25.10
2023-12-02T05:20:22.548Z,16.00
2023-12-02T05:22:50.957Z,15.00
2023-12-02T05:25:18.642Z,19.40
2023-12-02T05:27:46.028Z,20.40
2023-12-02T05:30:17.506Z,20.00
2023-12-02T05:32:45.025Z,26.60
2023-12-02T05:35:12.625Z,25.20
2023-12-02T05:37:41.232Z,20.10
2023-12-02T05:40:11.127Z,13.90
2023-12-02T05:42:38.996Z,20.80
2023-12-02T05:45:07.209Z,16.80
2023-12-02T05:47:34.780Z,26.60
2023-12-02T05:50:03.050Z,30.50
2023-12-02T05:52:30.381Z,31.40
2023-12-02T05:54:57.753Z,20.60
2023-12-02T05:57:25.142Z,17.90
2023-12-02T05:59:52.571Z,21.10
2023-12-02T06:02:20.123Z,19.20
2023-12-02T06:04:47.498Z,23.50
2023-12-02T06:07:15.256Z,137.30
2023-12-02T06:09:44.765Z,503.40
2023-12-02T06:12:12.092Z,133.10
2023-12-02T06:14:40.553Z,154.20
2023-12-02T06:17:08.610Z,145.40
2023-12-02T06:19:36.396Z,33.70
2023-12-02T06:22:04.052Z,96.80
2023-12-02T06:24:31.782Z,232.90
2023-12-02T06:26:59.269Z,211.00
2023-12-02T06:29:26.790Z,144.60
2023-12-02T06:31:55.254Z,96.70
2023-12-02T06:34:22.627Z,95.70
2023-12-02T06:36:49.927Z,54.70
2023-12-02T06:39:17.259Z,51.30
2023-12-02T06:41:44.738Z,53.60
2023-12-02T06:44:12.182Z,53.90
2023-12-02T06:46:39.525Z,55.00
2023-12-02T06:49:07.050Z,74.00
2023-12-02T06:51:34.559Z,70.20
2023-12-02T06:54:02.144Z,56.70
2023-12-02T06:56:29.517Z,60.20
2023-12-02T06:58:56.897Z,86.80
2023-12-02T07:01:28.822Z,44.30
2023-12-02T07:03:57.899Z,51.60
2023-12-02T07:06:26.991Z,35.30
2023-12-02T07:08:55.951Z,22.30
2023-12-02T07:11:23.812Z,15.40
2023-12-02T07:13:52.047Z,282.70
2023-12-02T07:16:20.277Z,277.00
2023-12-02T07:18:48.262Z,266.70
2023-12-02T07:21:16.096Z,32.90
2023-12-02T07:23:45.029Z,26.10
2023-12-02T07:26:12.652Z,24.50
2023-12-02T07:28:40.302Z,29.30
2023-12-02T07:31:13.823Z,38.70
2023-12-02T07:33:41.859Z,56.60
2023-12-02T07:36:09.847Z,69.00
2023-12-02T07:38:37.303Z,77.50
2023-12-02T07:41:04.673Z,49.60
2023-12-02T07:43:32.420Z,96.10
2023-12-02T07:45:59.915Z,63.30
2023-12-02T07:48:27.335Z,70.70
2023-12-02T07:50:54.772Z,73.60
2023-12-02T07:53:22.306Z,86.90
2023-12-02T07:55:49.660Z,99.30
2023-12-02T07:58:17.057Z,62.70
2023-12-02T08:00:44.591Z,65.80
2023-12-02T08:03:12.109Z,54.20
2023-12-02T08:08:10.438Z,32.40
2023-12-02T08:10:37.821Z,27.60
2023-12-02T08:13:05.470Z,18.30
2023-12-02T08:15:32.988Z,17.30
2023-12-02T08:18:00.345Z,29.90
2023-12-02T08:20:27.834Z,23.00
2023-12-02T08:22:55.431Z,29.10
2023-12-02T08:25:22.894Z,37.20
2023-12-02T08:27:50.412Z,38.50
2023-12-02T08:30:17.905Z,47.30
2023-12-02T08:32:45.264Z,81.90
2023-12-02T08:35:12.727Z,55.60
2023-12-02T08:37:40.138Z,45.00
2023-12-02T08:40:08.481Z,27.90
2023-12-02T08:42:36.119Z,18.10
2023-12-02T08:45:04.153Z,20.50
2023-12-02T08:47:32.570Z,19.20
2023-12-02T08:50:00.088Z,33.80
2023-12-02T08:52:27.723Z,30.00
2023-12-02T08:54:55.110Z,22.20
2023-12-02T08:57:22.400Z,36.30
2023-12-02T08:59:50.588Z,20.30
2023-12-02T09:02:18.230Z,46.50
2023-12-02T09:04:45.909Z,24.50
2023-12-02T09:07:13.226Z,24.00
2023-12-02T09:09:40.718Z,20.80
2023-12-02T09:12:08.967Z,23.00
2023-12-02T09:14:36.492Z,32.40
2023-12-02T09:17:05.548Z,37.50
2023-12-02T09:19:51.314Z,21.50
2023-12-02T09:22:47.636Z,25.80
2023-12-02T09:25:28.698Z,32.30
2023-12-02T09:28:11.878Z,19.80
2023-12-02T09:30:41.957Z,12.80
2023-12-02T09:33:09.533Z,16.30
2023-12-02T09:35:37.154Z,17.20
2023-12-02T09:38:05.136Z,15.80
2023-12-02T09:40:38.409Z,14.60
2023-12-02T09:43:38.716Z,31.00
2023-12-02T09:46:27.855Z,26.30
2023-12-02T09:49:16.956Z,35.40
2023-12-02T09:51:49.635Z,107.30
2023-12-02T09:54:27.491Z,37.80
2023-12-02T09:57:01.243Z,55.90
2023-12-02T09:59:34.212Z,18.70
2023-12-02T10:02:25.301Z,62.20
2023-12-02T10:05:05.749Z,23.60
2023-12-02T10:07:58.818Z,15.00
2023-12-02T10:10:28.692Z,17.40
2023-12-02T10:13:20.798Z,104.30
2023-12-02T10:15:52.295Z,145.00
2023-12-02T10:18:24.546Z,170.90
2023-12-02T10:21:00.419Z,84.40
2023-12-02T10:23:35.718Z,34.30
2023-12-02T10:26:08.411Z,153.10
2023-12-02T10:28:48.869Z,31.20
2023-12-02T10:31:28.566Z,27.00
2023-12-02T10:34:21.418Z,50.30
2023-12-02T10:36:49.859Z,36.00
2023-12-02T10:39:29.726Z,19.40
2023-12-02T10:42:03.032Z,23.70
2023-12-02T10:44:34.930Z,22.90
2023-12-02T10:47:04.640Z,16.50
2023-12-02T10:49:34.081Z,23.10
2023-12-02T10:54:38.571Z,47.40
2023-12-02T10:57:12.282Z,83.30
2023-12-02T10:59:54.345Z,71.30
2023-12-02T11:02:31.313Z,39.10
2023-12-02T11:05:13.362Z,25.10
2023-12-02T11:07:49.839Z,42.20
2023-12-02T11:10:22.055Z,28.90
2023-12-02T11:12:54.113Z,13.70
2023-12-02T11:15:24.597Z,20.90
2023-12-02T11:18:04.994Z,13.50
2023-12-02T11:20:47.776Z,15.30
2023-12-02T11:23:30.008Z,13.60
2023-12-02T11:26:09.011Z,15.30
2023-12-02T11:29:08.362Z,15.20
2023-12-02T11:32:17.499Z,11.40
2023-12-02T11:35:06.542Z,15.60
2023-12-02T11:37:51.924Z,17.00
2023-12-02T11:40:23.605Z,17.80
2023-12-02T11:43:09.094Z,19.70
2023-12-02T11:45:44.406Z,15.30
2023-12-02T11:48:30.151Z,13.50
2023-12-02T11:51:17.733Z,17.10
2023-12-02T11:53:47.843Z,10.40
2023-12-02T11:56:21.061Z,9.20
2023-12-02T11:59:07.403Z,5.80
2023-12-02T12:02:06.142Z,7.10
2023-12-02T12:05:12.595Z,6.60
2023-12-02T12:07:55.598Z,5.50
2023-12-02T12:10:34.175Z,8.80
2023-12-02T12:13:03.713Z,7.60
2023-12-02T12:15:32.154Z,7.00
2023-12-02T12:18:00.030Z,6.80
2023-12-02T12:20:27.581Z,12.80
2023-12-02T12:22:56.189Z,7.50
2023-12-02T12:25:26.595Z,10.20
2023-12-02T12:27:54.152Z,11.10
2023-12-02T12:30:21.536Z,11.80
2023-12-02T12:32:50.515Z,7.50
2023-12-02T12:35:19.056Z,10.20
2023-12-02T12:37:46.803Z,9.10
2023-12-02T12:40:14.305Z,22.10
2023-12-02T12:42:51.212Z,114.70
2023-12-02T12:45:19.063Z,26.30
2023-12-02T12:47:47.452Z,17.90
2023-12-02T12:50:16.338Z,18.40
2023-12-02T12:52:51.545Z,10.30
2023-12-02T12:55:25.743Z,14.20
2023-12-02T12:58:08.226Z,12.60
2023-12-02T13:00:40.942Z,13.40
2023-12-02T13:03:17.332Z,14.60
2023-12-02T13:05:56.318Z,14.90
2023-12-02T13:08:31.592Z,20.30
2023-12-02T13:11:12.135Z,15.70
2023-12-02T13:13:53.180Z,20.90
2023-12-02T13:16:23.786Z,22.10
2023-12-02T13:18:53.309Z,39.80
2023-12-02T13:21:21.900Z,31.90
2023-12-02T13:23:51.476Z,88.30
2023-12-02T13:26:29.361Z,47.00
2023-12-02T13:28:58.481Z,40.10
2023-12-02T13:31:28.968Z,18.10
2023-12-02T13:34:17.102Z,28.40
2023-12-02T13:36:50.430Z,26.30
2023-12-02T13:39:28.018Z,25.60
2023-12-02T13:41:56.594Z,68.70
2023-12-02T13:44:24.609Z,29.00
2023-12-02T13:47:08.826Z,15.80
2023-12-02T13:49:44.570Z,21.90
2023-12-02T13:52:25.714Z,18.50
2023-12-02T13:55:02.149Z,21.00
2023-12-02T13:57:46.207Z,17.90
2023-12-02T14:00:16.018Z,25.10
2023-12-02T14:03:01.706Z,25.70
2023-12-02T14:05:41.225Z,55.10
2023-12-02T14:08:08.722Z,37.30
2023-12-02T14:10:36.408Z,35.80
2023-12-02T14:13:06.467Z,46.30
2023-12-02T14:16:05.730Z,31.90
2023-12-02T14:18:47.053Z,34.60
2023-12-02T14:21:41.864Z,27.90
2023-12-02T14:24:21.225Z,21.30
2023-12-02T14:26:54.303Z,18.60
2023-12-02T14:29:29.018Z,34.70
2023-12-02T14:32:34.673Z,34.00
2023-12-02T14:35:17.096Z,63.00
2023-12-02T14:38:32.031Z,68.40
2023-12-02T14:41:26.668Z,100.10
2023-12-02T14:44:19.377Z,115.40
2023-12-02T14:46:57.443Z,201.50
2023-12-02T14:49:28.036Z,170.20
2023-12-02T14:51:59.949Z,169.00
2023-12-02T14:54:28.369Z,207.80
2023-12-02T14:56:55.879Z,123.50
2023-12-02T14:59:23.170Z,248.70
2023-12-02T15:01:53.128Z,169.20
2023-12-02T15:04:21.407Z,150.90
2023-12-02T15:06:51.477Z,100.40
2023-12-02T15:09:27.036Z,120.40
2023-12-02T15:12:05.742Z,112.60
2023-12-02T15:14:35.799Z,70.90
2023-12-02T15:17:03.170Z,98.90
2023-12-02T15:19:32.440Z,111.20
2023-12-02T15:22:16.326Z,79.80
2023-12-02T15:24:43.828Z,108.40
2023-12-02T15:27:11.243Z,118.20
2023-12-02T15:29:41.695Z,72.30
2023-12-02T15:32:14.665Z,82.80
2023-12-02T15:34:46.164Z,86.30
2023-12-02T15:37:14.465Z,63.50
2023-12-02T15:39:42.191Z,56.10
2023-12-02T15:42:12.633Z,48.50
2023-12-02T15:44:44.527Z,47.10
2023-12-02T15:47:13.596Z,55.70
2023-12-02T15:49:41.981Z,41.60
2023-12-02T15:52:12.601Z,35.90
2023-12-02T15:54:41.917Z,49.30
2023-12-02T15:57:18.931Z,63.60
2023-12-02T15:59:46.475Z,109.60
2023-12-02T16:02:14.367Z,140.00
2023-12-02T16:04:42.009Z,103.00
2023-12-02T16:07:13.580Z,126.30
2023-12-02T16:09:47.609Z,105.70
2023-12-02T16:12:17.598Z,111.00
2023-12-02T16:14:47.148Z,95.00
2023-12-02T16:17:17.935Z,122.60
2023-12-02T16:19:45.335Z,155.00
2023-12-02T16:22:17.211Z,207.80
2023-12-02T16:24:44.731Z,186.10
2023-12-02T16:27:12.027Z,212.60
2023-12-02T16:29:48.742Z,203.20
2023-12-02T16:32:16.985Z,250.70
2023-12-02T16:34:47.417Z,294.90
2023-12-02T16:37:17.695Z,146.90
2023-12-02T16:39:46.760Z,111.80
2023-12-02T16:42:13.996Z,95.30
2023-12-02T16:44:41.416Z,78.50
2023-12-02T16:47:39.673Z,108.10
2023-12-02T16:50:31.267Z,79.90
2023-12-02T16:53:03.470Z,61.50
2023-12-02T16:55:34.194Z,44.60
2023-12-02T16:58:03.107Z,77.30
2023-12-02T17:00:44.662Z,66.30
2023-12-02T17:03:32.882Z,62.60
2023-12-02T17:06:13.445Z,64.50
2023-12-02T17:08:45.470Z,59.30
2023-12-02T17:11:18.672Z,53.00
2023-12-02T17:14:01.280Z,99.50
2023-12-02T17:16:32.488Z,111.90
2023-12-02T17:19:01.441Z,85.20
2023-12-02T17:21:34.917Z,115.20
2023-12-02T17:24:02.604Z,122.30
2023-12-02T17:26:32.693Z,70.50
2023-12-02T17:29:00.257Z,87.50
2023-12-02T17:31:27.408Z,114.50
2023-12-02T17:33:55.342Z,71.00
2023-12-02T17:36:22.698Z,75.90
2023-12-02T17:38:49.912Z,72.80
2023-12-02T17:41:17.134Z,75.90
2023-12-02T17:43:44.765Z,74.50
2023-12-02T17:46:12.023Z,82.40
2023-12-02T17:48:39.637Z,59.20
2023-12-02T17:51:07.890Z,73.90
2023-12-02T17:53:35.123Z,67.50
2023-12-02T17:56:02.589Z,91.80
2023-12-02T17:58:29.893Z,85.20
2023-12-02T18:00:58.007Z,66.30
2023-12-02T18:03:25.277Z,80.80
2023-12-02T18:05:53.086Z,59.70
2023-12-02T18:08:20.277Z,73.00
2023-12-02T18:10:47.554Z,79.90
2023-12-02T18:13:14.893Z,67.40
2023-12-02T18:15:42.158Z,59.30
2023-12-02T18:18:10.645Z,61.70
2023-12-02T18:20:37.939Z,71.70
2023-12-02T18:23:05.134Z,78.40
2023-12-02T18:25:32.318Z,69.30
2023-12-02T18:28:00.078Z,93.40
2023-12-02T18:30:27.539Z,90.80
2023-12-02T18:32:54.920Z,90.90
2023-12-02T18:35:22.157Z,76.40
2023-12-02T18:37:50.036Z,94.30
2023-12-02T18:40:17.485Z,145.70
2023-12-02T18:42:44.720Z,128.40
2023-12-02T18:45:12.050Z,116.60
2023-12-02T18:47:39.942Z,111.20
2023-12-02T18:50:08.671Z,124.50
2023-12-02T18:52:35.879Z,56.90
2023-12-02T18:55:04.142Z,48.70
2023-12-02T18:57:31.432Z,37.80
2023-12-02T19:00:08.242Z,38.60
2023-12-02T19:02:35.812Z,45.40
2023-12-02T19:05:03.172Z,43.00
2023-12-02T19:07:30.949Z,29.50
2023-12-02T19:09:58.348Z,38.70
2023-12-02T19:12:25.755Z,38.40
2023-12-02T19:14:53.138Z,30.90
2023-12-02T19:17:24.186Z,32.70
2023-12-02T19:19:51.743Z,30.80
2023-12-02T19:22:19.549Z,25.00
2023-12-02T19:24:46.806Z,28.60
2023-12-02T19:27:14.612Z,28.70
2023-12-02T19:29:41.985Z,21.90
2023-12-02T19:32:11.961Z,24.80
2023-12-02T19:34:39.330Z,23.60
2023-12-02T19:37:06.537Z,23.50
2023-12-02T19:39:33.852Z,21.00
2023-12-02T19:42:01.134Z,17.50
2023-12-02T19:44:28.453Z,16.30
2023-12-02T19:46:58.167Z,18.70
2023-12-02T19:49:26.244Z,19.30
2023-12-02T19:51:53.587Z,23.00
2023-12-02T19:54:20.978Z,81.00
2023-12-02T19:56:51.414Z,47.10
2023-12-02T19:59:19.337Z,36.20
2023-12-02T20:01:46.719Z,35.20
2023-12-02T20:04:14.303Z,33.70
2023-12-02T20:06:42.395Z,23.10
2023-12-02T20:09:09.945Z,17.80
2023-12-02T20:11:44.857Z,11.40
2023-12-02T20:14:15.040Z,13.20
2023-12-02T20:16:42.472Z,12.40
2023-12-02T20:19:09.808Z,16.20
2023-12-02T20:21:37.772Z,10.60
2023-12-02T20:24:05.877Z,10.10
2023-12-02T20:26:33.524Z,18.60
2023-12-02T20:29:01.177Z,14.50
2023-12-02T20:31:28.984Z,9.00
2023-12-02T20:33:56.479Z,10.10
2023-12-02T20:36:23.810Z,9.30
2023-12-02T20:38:51.693Z,7.40
2023-12-02T20:41:18.998Z,6.90
2023-12-02T20:43:47.206Z,7.10
2023-12-02T20:46:14.594Z,6.70
2023-12-02T20:48:43.661Z,8.80
2023-12-02T20:51:11.339Z,4.90
2023-12-02T20:53:39.276Z,5.40
2023-12-02T20:56:07.425Z,4.10
2023-12-02T20:58:34.812Z,5.30
2023-12-02T21:01:02.068Z,5.70
2023-12-02T21:03:29.768Z,6.30
2023-12-02T21:05:57.413Z,5.80
2023-12-02T21:08:25.948Z,5.60
2023-12-02T21:10:56.307Z,12.00
2023-12-02T21:13:23.596Z,5.60
2023-12-02T21:15:50.901Z,7.00
2023-12-02T21:18:18.347Z,7.00
2023-12-02T21:20:45.698Z,11.80
2023-12-02T21:23:14.962Z,12.00
2023-12-02T21:25:43.445Z,17.60
2023-12-02T21:28:11.202Z,36.80
2023-12-02T21:30:42.695Z,18.70
2023-12-02T21:33:15.246Z,18.80
2023-12-02T21:35:57.844Z,30.60
2023-12-02T21:38:33.997Z,66.50
2023-12-02T21:41:07.690Z,58.20
2023-12-02T21:43:35.657Z,45.90
2023-12-02T21:46:03.537Z,101.30
2023-12-02T21:48:42.202Z,115.30
2023-12-02T21:51:38.667Z,48.60
2023-12-02T21:54:09.375Z,80.60
2023-12-02T21:56:46.920Z,38.20
2023-12-02T21:59:24.681Z,33.50
2023-12-02T22:01:54.538Z,57.90
2023-12-02T22:04:41.567Z,72.20
2023-12-02T22:07:13.589Z,47.60
2023-12-02T22:09:41.212Z,89.10
2023-12-02T22:12:39.062Z,58.30
2023-12-02T22:15:30.205Z,17.60
2023-12-02T22:18:01.510Z,48.70
2023-12-02T22:20:30.398Z,35.70
2023-12-02T22:23:02.401Z,101.30
2023-12-02T22:25:31.224Z,114.00
2023-12-02T22:28:07.190Z,24.50
2023-12-02T22:30:53.247Z,28.70
2023-12-02T22:33:22.966Z,75.10
2023-12-02T22:36:06.257Z,112.70
2023-12-02T22:38:44.572Z,69.60
2023-12-02T22:41:17.462Z,81.40
2023-12-02T22:43:49.969Z,70.60
2023-12-02T22:46:23.127Z,52.00
2023-12-02T22:48:52.101Z,62.40
2023-12-02T22:51:25.414Z,27.00
2023-12-02T22:53:53.035Z,27.80
2023-12-02T22:56:24.336Z,20.30
2023-12-02T22:58:53.080Z,15.10
2023-12-02T23:01:30.636Z,18.70
2023-12-02T23:03:59.376Z,17.90
2023-12-02T23:06:29.905Z,35.20
2023-12-02T23:08:58.072Z,31.70
2023-12-02T23:11:43.106Z,9.90
2023-12-02T23:14:20.634Z,9.80
2023-12-02T23:16:47.849Z,6.20
2023-12-02T23:19:28.711Z,6.60
2023-12-02T23:21:56.067Z,8.00
2023-12-02T23:24:23.499Z,8.10
2023-12-02T23:26:51.224Z,4.90
2023-12-02T23:29:18.417Z,70.70
2023-12-02T23:31:46.571Z,69.70
2023-12-02T23:34:15.280Z,31.30
2023-12-02T23:36:42.785Z,6.30
2023-12-02T23:39:30.556Z,19.70
2023-12-02T23:42:00.474Z,50.20
2023-12-02T23:44:35.081Z,32.30
2023-12-02T23:47:02.446Z,20.50
2023-12-02T23:49:29.765Z,12.20
2023-12-02T23:51:57.068Z,10.50
2023-12-02T23:54:24.325Z,10.60
2023-12-02T23:56:51.848Z,181.20
2023-12-02T23:59:19.796Z,40.10
